sensor_id;sensor_type;location;lat;lon;timestamp;P1;durP1;ratioP1;P2;durP2;ratioP2
69878;SDS011;57161;43.136;24.706;2022-10-16T00:00:32;9.98;;;7.20;;
69878;SDS011;57161;43.136;24.706;2022-10-16T00:03:00;8.57;;;6.45;;
69878;SDS011;57161;43.136;24.706;2022-10-16T00:05:25;9.77;;;6.82;;
69878;SDS011;57161;43.136;24.706;2022-10-16T00:07:51;11.13;;;7.40;;
69878;SDS011;57161;43.136;24.706;2022-10-16T00:10:16;10.50;;;6.55;;
69878;SDS011;57161;43.136;24.706;2022-10-16T00:12:42;14.32;;;7.70;;
69878;SDS011;57161;43.136;24.706;2022-10-16T00:15:07;12.13;;;6.70;;
69878;SDS011;57161;43.136;24.706;2022-10-16T00:17:33;9.80;;;6.50;;
69878;SDS011;57161;43.136;24.706;2022-10-16T00:19:59;10.95;;;6.90;;
69878;SDS011;57161;43.136;24.706;2022-10-16T00:22:24;11.77;;;6.88;;
69878;SDS011;57161;43.136;24.706;2022-10-16T00:24:50;11.02;;;7.07;;
69878;SDS011;57161;43.136;24.706;2022-10-16T00:27:15;11.43;;;6.72;;
69878;SDS011;57161;43.136;24.706;2022-10-16T00:29:42;8.85;;;6.70;;
69878;SDS011;57161;43.136;24.706;2022-10-16T00:32:08;10.90;;;6.88;;
69878;SDS011;57161;43.136;24.706;2022-10-16T00:34:34;9.85;;;7.13;;
69878;SDS011;57161;43.136;24.706;2022-10-16T00:36:59;12.55;;;7.10;;
69878;SDS011;57161;43.136;24.706;2022-10-16T00:39:24;9.65;;;7.05;;
69878;SDS011;57161;43.136;24.706;2022-10-16T00:41:50;12.38;;;6.90;;
69878;SDS011;57161;43.136;24.706;2022-10-16T00:47:10;13.45;;;7.10;;
69878;SDS011;57161;43.136;24.706;2022-10-16T00:52:06;9.57;;;6.57;;
69878;SDS011;57161;43.136;24.706;2022-10-16T00:54:32;10.52;;;6.60;;
69878;SDS011;57161;43.136;24.706;2022-10-16T00:57:02;10.85;;;6.63;;
69878;SDS011;57161;43.136;24.706;2022-10-16T00:59:48;9.35;;;6.80;;
69878;SDS011;57161;43.136;24.706;2022-10-16T01:02:15;11.05;;;7.15;;
69878;SDS011;57161;43.136;24.706;2022-10-16T01:04:44;9.38;;;6.93;;
69878;SDS011;57161;43.136;24.706;2022-10-16T01:07:27;13.90;;;6.95;;
69878;SDS011;57161;43.136;24.706;2022-10-16T01:12:48;10.93;;;6.97;;
69878;SDS011;57161;43.136;24.706;2022-10-16T01:15:37;8.05;;;6.32;;
69878;SDS011;57161;43.136;24.706;2022-10-16T01:21:22;9.57;;;6.35;;
69878;SDS011;57161;43.136;24.706;2022-10-16T01:34:54;10.77;;;6.47;;
69878;SDS011;57161;43.136;24.706;2022-10-16T01:37:35;10.52;;;7.03;;
69878;SDS011;57161;43.136;24.706;2022-10-16T01:40:09;12.75;;;7.22;;
69878;SDS011;57161;43.136;24.706;2022-10-16T01:42:39;8.65;;;6.15;;
69878;SDS011;57161;43.136;24.706;2022-10-16T01:45:11;8.85;;;6.22;;
69878;SDS011;57161;43.136;24.706;2022-10-16T01:47:46;8.55;;;6.40;;
69878;SDS011;57161;43.136;24.706;2022-10-16T01:50:14;9.95;;;6.13;;
69878;SDS011;57161;43.136;24.706;2022-10-16T01:52:44;10.82;;;6.72;;
69878;SDS011;57161;43.136;24.706;2022-10-16T01:55:16;9.82;;;6.07;;
69878;SDS011;57161;43.136;24.706;2022-10-16T01:57:47;10.27;;;6.43;;
69878;SDS011;57161;43.136;24.706;2022-10-16T02:00:17;7.80;;;6.20;;
69878;SDS011;57161;43.136;24.706;2022-10-16T02:02:46;11.25;;;6.70;;
69878;SDS011;57161;43.136;24.706;2022-10-16T02:05:28;11.15;;;6.97;;
69878;SDS011;57161;43.136;24.706;2022-10-16T02:07:59;7.75;;;6.18;;
69878;SDS011;57161;43.136;24.706;2022-10-16T02:10:25;11.73;;;6.50;;
69878;SDS011;57161;43.136;24.706;2022-10-16T02:13:29;12.57;;;6.50;;
69878;SDS011;57161;43.136;24.706;2022-10-16T02:15:51;11.88;;;6.78;;
69878;SDS011;57161;43.136;24.706;2022-10-16T02:18:16;10.50;;;6.50;;
69878;SDS011;57161;43.136;24.706;2022-10-16T02:20:44;8.10;;;6.45;;
69878;SDS011;57161;43.136;24.706;2022-10-16T02:23:19;9.90;;;6.40;;
69878;SDS011;57161;43.136;24.706;2022-10-16T02:25:53;12.52;;;6.63;;
69878;SDS011;57161;43.136;24.706;2022-10-16T02:28:24;9.23;;;6.55;;
69878;SDS011;57161;43.136;24.706;2022-10-16T02:33:27;8.55;;;6.90;;
69878;SDS011;57161;43.136;24.706;2022-10-16T02:35:54;7.50;;;6.05;;
69878;SDS011;57161;43.136;24.706;2022-10-16T02:38:21;14.63;;;7.20;;
69878;SDS011;57161;43.136;24.706;2022-10-16T02:40:48;10.35;;;6.53;;
69878;SDS011;57161;43.136;24.706;2022-10-16T02:43:14;10.10;;;6.82;;
69878;SDS011;57161;43.136;24.706;2022-10-16T02:45:40;9.45;;;6.28;;
69878;SDS011;57161;43.136;24.706;2022-10-16T02:48:06;11.50;;;6.82;;
69878;SDS011;57161;43.136;24.706;2022-10-16T02:50:32;9.88;;;6.63;;
69878;SDS011;57161;43.136;24.706;2022-10-16T02:52:57;11.20;;;6.47;;
69878;SDS011;57161;43.136;24.706;2022-10-16T02:55:23;7.80;;;6.45;;
69878;SDS011;57161;43.136;24.706;2022-10-16T02:57:48;10.75;;;7.25;;
69878;SDS011;57161;43.136;24.706;2022-10-16T03:00:15;8.90;;;6.57;;
69878;SDS011;57161;43.136;24.706;2022-10-16T03:02:42;8.48;;;6.15;;
69878;SDS011;57161;43.136;24.706;2022-10-16T03:05:08;10.20;;;6.57;;
69878;SDS011;57161;43.136;24.706;2022-10-16T03:07:34;8.43;;;6.03;;
69878;SDS011;57161;43.136;24.706;2022-10-16T03:10:00;8.25;;;6.45;;
69878;SDS011;57161;43.136;24.706;2022-10-16T03:12:26;11.30;;;6.15;;
69878;SDS011;57161;43.136;24.706;2022-10-16T03:14:52;8.85;;;6.65;;
69878;SDS011;57161;43.136;24.706;2022-10-16T03:17:18;7.88;;;6.35;;
69878;SDS011;57161;43.136;24.706;2022-10-16T03:19:43;9.23;;;6.50;;
69878;SDS011;57161;43.136;24.706;2022-10-16T03:22:09;8.82;;;6.18;;
69878;SDS011;57161;43.136;24.706;2022-10-16T03:24:34;9.80;;;6.43;;
69878;SDS011;57161;43.136;24.706;2022-10-16T03:27:00;8.52;;;6.55;;
69878;SDS011;57161;43.136;24.706;2022-10-16T03:29:25;10.02;;;6.40;;
69878;SDS011;57161;43.136;24.706;2022-10-16T03:31:52;10.70;;;6.85;;
69878;SDS011;57161;43.136;24.706;2022-10-16T03:34:18;13.18;;;6.68;;
69878;SDS011;57161;43.136;24.706;2022-10-16T03:36:43;7.88;;;6.53;;
69878;SDS011;57161;43.136;24.706;2022-10-16T03:39:09;9.05;;;6.82;;
69878;SDS011;57161;43.136;24.706;2022-10-16T03:41:34;9.38;;;6.95;;
69878;SDS011;57161;43.136;24.706;2022-10-16T03:44:00;11.65;;;6.75;;
69878;SDS011;57161;43.136;24.706;2022-10-16T03:46:25;8.20;;;5.97;;
69878;SDS011;57161;43.136;24.706;2022-10-16T03:48:51;10.77;;;7.22;;
69878;SDS011;57161;43.136;24.706;2022-10-16T03:51:16;9.50;;;7.10;;
69878;SDS011;57161;43.136;24.706;2022-10-16T03:53:42;10.77;;;6.55;;
69878;SDS011;57161;43.136;24.706;2022-10-16T03:56:07;9.75;;;6.20;;
69878;SDS011;57161;43.136;24.706;2022-10-16T03:58:32;10.88;;;6.50;;
69878;SDS011;57161;43.136;24.706;2022-10-16T04:00:58;8.90;;;6.93;;
69878;SDS011;57161;43.136;24.706;2022-10-16T04:03:23;10.38;;;6.50;;
69878;SDS011;57161;43.136;24.706;2022-10-16T04:05:49;8.85;;;6.40;;
69878;SDS011;57161;43.136;24.706;2022-10-16T04:08:15;11.35;;;7.00;;
69878;SDS011;57161;43.136;24.706;2022-10-16T04:10:42;11.15;;;6.32;;
69878;SDS011;57161;43.136;24.706;2022-10-16T04:13:08;10.55;;;7.18;;
69878;SDS011;57161;43.136;24.706;2022-10-16T04:15:34;9.35;;;7.18;;
69878;SDS011;57161;43.136;24.706;2022-10-16T04:17:59;12.20;;;7.07;;
69878;SDS011;57161;43.136;24.706;2022-10-16T04:20:25;8.60;;;6.60;;
69878;SDS011;57161;43.136;24.706;2022-10-16T04:22:50;11.18;;;7.45;;
69878;SDS011;57161;43.136;24.706;2022-10-16T04:25:16;19.73;;;11.73;;
69878;SDS011;57161;43.136;24.706;2022-10-16T04:27:41;31.08;;;18.25;;
69878;SDS011;57161;43.136;24.706;2022-10-16T04:30:07;21.23;;;14.30;;
69878;SDS011;57161;43.136;24.706;2022-10-16T04:32:33;25.65;;;19.48;;
69878;SDS011;57161;43.136;24.706;2022-10-16T04:34:58;12.35;;;7.47;;
69878;SDS011;57161;43.136;24.706;2022-10-16T04:37:24;11.82;;;8.30;;
69878;SDS011;57161;43.136;24.706;2022-10-16T04:39:50;9.68;;;7.00;;
69878;SDS011;57161;43.136;24.706;2022-10-16T04:42:16;10.95;;;7.43;;
69878;SDS011;57161;43.136;24.706;2022-10-16T04:44:42;10.55;;;7.93;;
69878;SDS011;57161;43.136;24.706;2022-10-16T04:47:07;13.30;;;10.35;;
69878;SDS011;57161;43.136;24.706;2022-10-16T04:49:33;11.80;;;8.43;;
69878;SDS011;57161;43.136;24.706;2022-10-16T04:51:58;11.88;;;8.52;;
69878;SDS011;57161;43.136;24.706;2022-10-16T04:54:24;9.45;;;7.35;;
69878;SDS011;57161;43.136;24.706;2022-10-16T04:56:49;11.32;;;7.32;;
69878;SDS011;57161;43.136;24.706;2022-10-16T04:59:17;10.75;;;6.95;;
69878;SDS011;57161;43.136;24.706;2022-10-16T05:01:43;9.50;;;6.95;;
69878;SDS011;57161;43.136;24.706;2022-10-16T05:04:09;9.50;;;6.28;;
69878;SDS011;57161;43.136;24.706;2022-10-16T05:06:35;9.93;;;6.05;;
69878;SDS011;57161;43.136;24.706;2022-10-16T05:09:01;10.23;;;5.95;;
69878;SDS011;57161;43.136;24.706;2022-10-16T05:11:27;7.78;;;5.82;;
69878;SDS011;57161;43.136;24.706;2022-10-16T05:13:52;10.07;;;5.80;;
69878;SDS011;57161;43.136;24.706;2022-10-16T05:16:18;14.73;;;6.20;;
69878;SDS011;57161;43.136;24.706;2022-10-16T05:18:43;10.00;;;6.35;;
69878;SDS011;57161;43.136;24.706;2022-10-16T05:21:09;9.60;;;5.65;;
69878;SDS011;57161;43.136;24.706;2022-10-16T05:23:34;10.20;;;6.78;;
69878;SDS011;57161;43.136;24.706;2022-10-16T05:26:00;9.95;;;6.75;;
69878;SDS011;57161;43.136;24.706;2022-10-16T05:28:26;9.82;;;6.25;;
69878;SDS011;57161;43.136;24.706;2022-10-16T05:30:53;9.15;;;6.30;;
69878;SDS011;57161;43.136;24.706;2022-10-16T05:33:23;9.73;;;6.38;;
69878;SDS011;57161;43.136;24.706;2022-10-16T05:35:50;6.75;;;5.53;;
69878;SDS011;57161;43.136;24.706;2022-10-16T05:38:16;9.30;;;6.10;;
69878;SDS011;57161;43.136;24.706;2022-10-16T05:40:43;7.13;;;5.70;;
69878;SDS011;57161;43.136;24.706;2022-10-16T05:43:15;7.68;;;5.95;;
69878;SDS011;57161;43.136;24.706;2022-10-16T05:45:40;7.28;;;5.78;;
69878;SDS011;57161;43.136;24.706;2022-10-16T05:48:06;11.60;;;5.80;;
69878;SDS011;57161;43.136;24.706;2022-10-16T05:50:31;9.45;;;5.95;;
69878;SDS011;57161;43.136;24.706;2022-10-16T05:52:57;11.55;;;5.40;;
69878;SDS011;57161;43.136;24.706;2022-10-16T05:55:22;6.93;;;5.70;;
69878;SDS011;57161;43.136;24.706;2022-10-16T05:57:48;8.05;;;5.45;;
69878;SDS011;57161;43.136;24.706;2022-10-16T06:00:13;9.75;;;6.28;;
69878;SDS011;57161;43.136;24.706;2022-10-16T06:02:39;9.48;;;5.90;;
69878;SDS011;57161;43.136;24.706;2022-10-16T06:05:04;9.07;;;6.30;;
69878;SDS011;57161;43.136;24.706;2022-10-16T06:07:33;9.02;;;5.30;;
69878;SDS011;57161;43.136;24.706;2022-10-16T06:09:59;7.00;;;5.30;;
69878;SDS011;57161;43.136;24.706;2022-10-16T06:12:25;8.55;;;5.78;;
69878;SDS011;57161;43.136;24.706;2022-10-16T06:14:51;9.95;;;5.30;;
69878;SDS011;57161;43.136;24.706;2022-10-16T06:17:17;9.63;;;5.55;;
69878;SDS011;57161;43.136;24.706;2022-10-16T06:19:42;10.80;;;6.35;;
69878;SDS011;57161;43.136;24.706;2022-10-16T06:22:08;10.80;;;5.97;;
69878;SDS011;57161;43.136;24.706;2022-10-16T06:24:33;9.55;;;6.57;;
69878;SDS011;57161;43.136;24.706;2022-10-16T06:26:59;13.48;;;7.00;;
69878;SDS011;57161;43.136;24.706;2022-10-16T06:29:24;9.93;;;6.50;;
69878;SDS011;57161;43.136;24.706;2022-10-16T06:31:50;7.80;;;5.22;;
69878;SDS011;57161;43.136;24.706;2022-10-16T06:34:15;5.93;;;4.97;;
69878;SDS011;57161;43.136;24.706;2022-10-16T06:36:41;9.05;;;5.30;;
69878;SDS011;57161;43.136;24.706;2022-10-16T06:39:08;10.57;;;5.10;;
69878;SDS011;57161;43.136;24.706;2022-10-16T06:41:33;6.80;;;5.40;;
69878;SDS011;57161;43.136;24.706;2022-10-16T06:43:59;6.22;;;4.95;;
69878;SDS011;57161;43.136;24.706;2022-10-16T06:46:25;8.25;;;5.03;;
69878;SDS011;57161;43.136;24.706;2022-10-16T06:48:55;6.70;;;5.30;;
69878;SDS011;57161;43.136;24.706;2022-10-16T06:51:21;9.15;;;5.10;;
69878;SDS011;57161;43.136;24.706;2022-10-16T06:53:51;13.40;;;5.85;;
69878;SDS011;57161;43.136;24.706;2022-10-16T06:56:25;6.78;;;5.45;;
69878;SDS011;57161;43.136;24.706;2022-10-16T06:58:52;8.38;;;5.55;;
69878;SDS011;57161;43.136;24.706;2022-10-16T07:01:19;8.95;;;5.50;;
69878;SDS011;57161;43.136;24.706;2022-10-16T07:03:47;8.02;;;5.38;;
69878;SDS011;57161;43.136;24.706;2022-10-16T07:06:15;7.25;;;5.05;;
69878;SDS011;57161;43.136;24.706;2022-10-16T07:08:42;9.43;;;5.30;;
69878;SDS011;57161;43.136;24.706;2022-10-16T07:11:10;7.30;;;5.60;;
69878;SDS011;57161;43.136;24.706;2022-10-16T07:13:38;10.85;;;5.50;;
69878;SDS011;57161;43.136;24.706;2022-10-16T07:18:42;8.55;;;5.03;;
69878;SDS011;57161;43.136;24.706;2022-10-16T07:21:12;7.18;;;4.90;;
69878;SDS011;57161;43.136;24.706;2022-10-16T07:23:39;13.68;;;4.80;;
69878;SDS011;57161;43.136;24.706;2022-10-16T07:26:05;10.88;;;5.38;;
69878;SDS011;57161;43.136;24.706;2022-10-16T07:28:32;26.05;;;5.18;;
69878;SDS011;57161;43.136;24.706;2022-10-16T07:31:04;9.32;;;4.90;;
69878;SDS011;57161;43.136;24.706;2022-10-16T07:33:31;337.92;;;19.98;;
69878;SDS011;57161;43.136;24.706;2022-10-16T07:35:57;9.98;;;4.78;;
69878;SDS011;57161;43.136;24.706;2022-10-16T07:38:23;13.95;;;5.43;;
69878;SDS011;57161;43.136;24.706;2022-10-16T07:40:55;9.85;;;5.32;;
69878;SDS011;57161;43.136;24.706;2022-10-16T07:43:30;8.32;;;5.50;;
69878;SDS011;57161;43.136;24.706;2022-10-16T07:45:57;9.93;;;5.35;;
69878;SDS011;57161;43.136;24.706;2022-10-16T07:48:23;9.45;;;5.28;;
69878;SDS011;57161;43.136;24.706;2022-10-16T07:50:49;9.25;;;4.40;;
69878;SDS011;57161;43.136;24.706;2022-10-16T07:53:15;5.40;;;4.22;;
69878;SDS011;57161;43.136;24.706;2022-10-16T07:55:41;7.30;;;4.05;;
69878;SDS011;57161;43.136;24.706;2022-10-16T07:58:07;5.10;;;4.07;;
69878;SDS011;57161;43.136;24.706;2022-10-16T08:00:32;26.45;;;6.03;;
69878;SDS011;57161;43.136;24.706;2022-10-16T08:02:58;11.05;;;4.50;;
69878;SDS011;57161;43.136;24.706;2022-10-16T08:05:26;9.65;;;5.60;;
69878;SDS011;57161;43.136;24.706;2022-10-16T08:07:52;11.13;;;4.43;;
69878;SDS011;57161;43.136;24.706;2022-10-16T08:10:19;9.50;;;4.85;;
69878;SDS011;57161;43.136;24.706;2022-10-16T08:12:46;14.88;;;10.18;;
69878;SDS011;57161;43.136;24.706;2022-10-16T08:15:12;7.53;;;5.10;;
69878;SDS011;57161;43.136;24.706;2022-10-16T08:17:37;9.27;;;5.97;;
69878;SDS011;57161;43.136;24.706;2022-10-16T08:20:03;11.80;;;6.13;;
69878;SDS011;57161;43.136;24.706;2022-10-16T08:22:29;7.95;;;5.40;;
69878;SDS011;57161;43.136;24.706;2022-10-16T08:24:55;19.02;;;5.15;;
69878;SDS011;57161;43.136;24.706;2022-10-16T08:27:21;12.02;;;6.22;;
69878;SDS011;57161;43.136;24.706;2022-10-16T08:29:48;18.73;;;7.40;;
69878;SDS011;57161;43.136;24.706;2022-10-16T08:32:13;16.30;;;6.70;;
69878;SDS011;57161;43.136;24.706;2022-10-16T08:34:39;51.42;;;8.90;;
69878;SDS011;57161;43.136;24.706;2022-10-16T08:37:04;10.13;;;5.68;;
69878;SDS011;57161;43.136;24.706;2022-10-16T08:39:32;8.20;;;5.53;;
69878;SDS011;57161;43.136;24.706;2022-10-16T08:47:43;8.85;;;5.57;;
69878;SDS011;57161;43.136;24.706;2022-10-16T08:50:14;13.73;;;5.82;;
69878;SDS011;57161;43.136;24.706;2022-10-16T08:52:46;15.10;;;5.93;;
69878;SDS011;57161;43.136;24.706;2022-10-16T08:55:31;12.15;;;6.07;;
69878;SDS011;57161;43.136;24.706;2022-10-16T08:57:58;13.70;;;5.72;;
69878;SDS011;57161;43.136;24.706;2022-10-16T09:00:24;15.73;;;6.18;;
69878;SDS011;57161;43.136;24.706;2022-10-16T09:03:06;8.80;;;6.03;;
69878;SDS011;57161;43.136;24.706;2022-10-16T09:05:45;13.13;;;6.63;;
69878;SDS011;57161;43.136;24.706;2022-10-16T09:11:07;9.05;;;5.80;;
69878;SDS011;57161;43.136;24.706;2022-10-16T09:16:18;14.15;;;6.43;;
69878;SDS011;57161;43.136;24.706;2022-10-16T09:21:35;12.30;;;7.07;;
69878;SDS011;57161;43.136;24.706;2022-10-16T09:24:11;10.83;;;6.70;;
69878;SDS011;57161;43.136;24.706;2022-10-16T09:26:39;10.38;;;7.00;;
69878;SDS011;57161;43.136;24.706;2022-10-16T09:29:04;19.17;;;6.97;;
69878;SDS011;57161;43.136;24.706;2022-10-16T09:31:30;12.18;;;7.40;;
69878;SDS011;57161;43.136;24.706;2022-10-16T09:33:59;13.77;;;6.78;;
69878;SDS011;57161;43.136;24.706;2022-10-16T09:36:31;10.85;;;7.22;;
69878;SDS011;57161;43.136;24.706;2022-10-16T09:39:06;14.88;;;7.28;;
69878;SDS011;57161;43.136;24.706;2022-10-16T09:41:36;11.98;;;8.02;;
69878;SDS011;57161;43.136;24.706;2022-10-16T09:46:37;13.40;;;8.43;;
69878;SDS011;57161;43.136;24.706;2022-10-16T09:49:16;15.18;;;8.80;;
69878;SDS011;57161;43.136;24.706;2022-10-16T09:51:48;19.58;;;9.13;;
69878;SDS011;57161;43.136;24.706;2022-10-16T09:54:15;18.52;;;9.02;;
69878;SDS011;57161;43.136;24.706;2022-10-16T09:56:45;11.52;;;8.90;;
69878;SDS011;57161;43.136;24.706;2022-10-16T10:01:47;14.82;;;8.60;;
69878;SDS011;57161;43.136;24.706;2022-10-16T10:04:15;19.23;;;9.20;;
69878;SDS011;57161;43.136;24.706;2022-10-16T10:09:16;14.25;;;8.48;;
69878;SDS011;57161;43.136;24.706;2022-10-16T10:17:01;16.30;;;8.07;;
69878;SDS011;57161;43.136;24.706;2022-10-16T10:19:38;12.93;;;8.43;;
69878;SDS011;57161;43.136;24.706;2022-10-16T10:30:32;17.92;;;7.95;;
69878;SDS011;57161;43.136;24.706;2022-10-16T10:36:16;10.70;;;7.22;;
69878;SDS011;57161;43.136;24.706;2022-10-16T10:41:34;23.25;;;8.55;;
69878;SDS011;57161;43.136;24.706;2022-10-16T10:44:50;15.27;;;7.72;;
69878;SDS011;57161;43.136;24.706;2022-10-16T10:56:09;15.30;;;6.93;;
69878;SDS011;57161;43.136;24.706;2022-10-16T10:58:57;12.30;;;6.95;;
69878;SDS011;57161;43.136;24.706;2022-10-16T11:07:24;9.23;;;5.88;;
69878;SDS011;57161;43.136;24.706;2022-10-16T11:09:53;9.05;;;6.00;;
69878;SDS011;57161;43.136;24.706;2022-10-16T11:12:28;8.38;;;5.90;;
69878;SDS011;57161;43.136;24.706;2022-10-16T11:15:05;9.80;;;6.13;;
69878;SDS011;57161;43.136;24.706;2022-10-16T11:17:41;9.82;;;6.20;;
69878;SDS011;57161;43.136;24.706;2022-10-16T11:22:58;10.07;;;5.60;;
69878;SDS011;57161;43.136;24.706;2022-10-16T11:25:30;8.23;;;5.53;;
69878;SDS011;57161;43.136;24.706;2022-10-16T11:28:00;9.70;;;5.68;;
69878;SDS011;57161;43.136;24.706;2022-10-16T11:30:55;10.47;;;5.37;;
69878;SDS011;57161;43.136;24.706;2022-10-16T11:34:18;9.20;;;5.55;;
69878;SDS011;57161;43.136;24.706;2022-10-16T11:36:58;9.25;;;5.18;;
69878;SDS011;57161;43.136;24.706;2022-10-16T11:39:47;11.85;;;6.82;;
69878;SDS011;57161;43.136;24.706;2022-10-16T11:42:57;9.95;;;5.97;;
69878;SDS011;57161;43.136;24.706;2022-10-16T11:45:13;10.25;;;5.47;;
69878;SDS011;57161;43.136;24.706;2022-10-16T11:48:00;8.88;;;6.28;;
69878;SDS011;57161;43.136;24.706;2022-10-16T11:50:54;9.18;;;6.22;;
69878;SDS011;57161;43.136;24.706;2022-10-16T11:56:07;10.15;;;6.65;;
69878;SDS011;57161;43.136;24.706;2022-10-16T11:58:41;11.82;;;6.65;;
69878;SDS011;57161;43.136;24.706;2022-10-16T12:06:58;11.00;;;6.75;;
69878;SDS011;57161;43.136;24.706;2022-10-16T12:09:32;11.60;;;7.20;;
69878;SDS011;57161;43.136;24.706;2022-10-16T12:11:59;11.80;;;7.18;;
69878;SDS011;57161;43.136;24.706;2022-10-16T12:17:02;10.77;;;7.72;;
69878;SDS011;57161;43.136;24.706;2022-10-16T12:19:57;11.60;;;7.35;;
69878;SDS011;57161;43.136;24.706;2022-10-16T12:22:27;10.57;;;7.60;;
69878;SDS011;57161;43.136;24.706;2022-10-16T12:24:55;13.13;;;7.45;;
69878;SDS011;57161;43.136;24.706;2022-10-16T12:27:24;10.45;;;7.47;;
69878;SDS011;57161;43.136;24.706;2022-10-16T12:29:54;13.35;;;7.50;;
69878;SDS011;57161;43.136;24.706;2022-10-16T12:34:59;11.63;;;7.68;;
69878;SDS011;57161;43.136;24.706;2022-10-16T12:37:28;10.35;;;8.00;;
69878;SDS011;57161;43.136;24.706;2022-10-16T12:39:57;9.98;;;7.38;;
69878;SDS011;57161;43.136;24.706;2022-10-16T12:44:52;11.75;;;7.57;;
69878;SDS011;57161;43.136;24.706;2022-10-16T12:47:38;11.93;;;6.97;;
69878;SDS011;57161;43.136;24.706;2022-10-16T12:52:59;10.27;;;7.07;;
69878;SDS011;57161;43.136;24.706;2022-10-16T12:55:25;32.38;;;8.50;;
69878;SDS011;57161;43.136;24.706;2022-10-16T13:00:58;8.88;;;6.65;;
69878;SDS011;57161;43.136;24.706;2022-10-16T13:17:11;8.77;;;6.05;;
69878;SDS011;57161;43.136;24.706;2022-10-16T13:19:54;12.30;;;5.88;;
69878;SDS011;57161;43.136;24.706;2022-10-16T13:25:21;10.85;;;5.68;;
69878;SDS011;57161;43.136;24.706;2022-10-16T13:28:07;9.38;;;5.47;;
69878;SDS011;57161;43.136;24.706;2022-10-16T13:30:41;8.52;;;5.95;;
69878;SDS011;57161;43.136;24.706;2022-10-16T13:33:15;7.82;;;5.18;;
69878;SDS011;57161;43.136;24.706;2022-10-16T13:35:50;9.95;;;5.05;;
69878;SDS011;57161;43.136;24.706;2022-10-16T13:41:05;10.63;;;5.05;;
69878;SDS011;57161;43.136;24.706;2022-10-16T13:54:07;9.70;;;4.60;;
69878;SDS011;57161;43.136;24.706;2022-10-16T13:56:38;6.40;;;4.90;;
69878;SDS011;57161;43.136;24.706;2022-10-16T14:01:57;8.18;;;5.25;;
69878;SDS011;57161;43.136;24.706;2022-10-16T14:04:31;10.57;;;4.93;;
69878;SDS011;57161;43.136;24.706;2022-10-16T14:07:02;9.07;;;5.00;;
69878;SDS011;57161;43.136;24.706;2022-10-16T14:14:48;8.60;;;4.85;;
69878;SDS011;57161;43.136;24.706;2022-10-16T14:17:24;13.70;;;5.97;;
69878;SDS011;57161;43.136;24.706;2022-10-16T14:25:18;7.60;;;5.00;;
69878;SDS011;57161;43.136;24.706;2022-10-16T14:28:00;8.85;;;5.18;;
69878;SDS011;57161;43.136;24.706;2022-10-16T14:30:28;8.55;;;4.68;;
69878;SDS011;57161;43.136;24.706;2022-10-16T14:32:59;8.60;;;4.70;;
69878;SDS011;57161;43.136;24.706;2022-10-16T14:35:31;9.05;;;5.07;;
69878;SDS011;57161;43.136;24.706;2022-10-16T14:38:06;9.40;;;5.13;;
69878;SDS011;57161;43.136;24.706;2022-10-16T14:40:47;10.65;;;6.03;;
69878;SDS011;57161;43.136;24.706;2022-10-16T14:43:14;28.33;;;5.80;;
69878;SDS011;57161;43.136;24.706;2022-10-16T14:45:52;10.93;;;5.25;;
69878;SDS011;57161;43.136;24.706;2022-10-16T14:48:20;10.90;;;5.00;;
69878;SDS011;57161;43.136;24.706;2022-10-16T14:50:46;10.13;;;4.95;;
69878;SDS011;57161;43.136;24.706;2022-10-16T14:53:12;7.07;;;4.90;;
69878;SDS011;57161;43.136;24.706;2022-10-16T14:58:21;16.00;;;6.20;;
69878;SDS011;57161;43.136;24.706;2022-10-16T15:00:48;10.93;;;6.20;;
69878;SDS011;57161;43.136;24.706;2022-10-16T15:54:07;19.10;;;11.25;;
69878;SDS011;57161;43.136;24.706;2022-10-16T15:56:33;17.35;;;11.52;;
69878;SDS011;57161;43.136;24.706;2022-10-16T15:59:01;14.25;;;9.88;;
69878;SDS011;57161;43.136;24.706;2022-10-16T16:01:28;21.50;;;10.55;;
69878;SDS011;57161;43.136;24.706;2022-10-16T16:03:54;13.45;;;9.10;;
69878;SDS011;57161;43.136;24.706;2022-10-16T16:06:20;18.65;;;8.38;;
69878;SDS011;57161;43.136;24.706;2022-10-16T16:08:47;17.58;;;7.82;;
69878;SDS011;57161;43.136;24.706;2022-10-16T16:11:14;19.42;;;8.43;;
69878;SDS011;57161;43.136;24.706;2022-10-16T16:13:41;13.52;;;7.63;;
69878;SDS011;57161;43.136;24.706;2022-10-16T16:16:07;14.45;;;6.88;;
69878;SDS011;57161;43.136;24.706;2022-10-16T16:18:42;14.40;;;7.32;;
69878;SDS011;57161;43.136;24.706;2022-10-16T16:21:09;19.45;;;9.18;;
69878;SDS011;57161;43.136;24.706;2022-10-16T16:23:36;15.82;;;8.68;;
69878;SDS011;57161;43.136;24.706;2022-10-16T16:31:30;14.30;;;8.30;;
69878;SDS011;57161;43.136;24.706;2022-10-16T16:33:57;19.30;;;11.45;;
69878;SDS011;57161;43.136;24.706;2022-10-16T16:36:24;37.67;;;20.05;;
69878;SDS011;57161;43.136;24.706;2022-10-16T16:38:50;29.15;;;17.58;;
69878;SDS011;57161;43.136;24.706;2022-10-16T16:41:17;40.22;;;21.30;;
69878;SDS011;57161;43.136;24.706;2022-10-16T16:43:44;42.67;;;24.30;;
69878;SDS011;57161;43.136;24.706;2022-10-16T16:46:10;25.88;;;12.93;;
69878;SDS011;57161;43.136;24.706;2022-10-16T16:48:36;33.25;;;14.20;;
69878;SDS011;57161;43.136;24.706;2022-10-16T16:51:09;17.35;;;10.18;;
69878;SDS011;57161;43.136;24.706;2022-10-16T16:53:44;14.10;;;7.25;;
69878;SDS011;57161;43.136;24.706;2022-10-16T16:56:11;23.65;;;13.40;;
69878;SDS011;57161;43.136;24.706;2022-10-16T16:58:37;30.10;;;18.45;;
69878;SDS011;57161;43.136;24.706;2022-10-16T17:01:04;22.88;;;13.07;;
69878;SDS011;57161;43.136;24.706;2022-10-16T17:03:31;27.08;;;14.93;;
69878;SDS011;57161;43.136;24.706;2022-10-16T17:05:58;13.07;;;8.80;;
69878;SDS011;57161;43.136;24.706;2022-10-16T17:08:25;15.10;;;9.07;;
69878;SDS011;57161;43.136;24.706;2022-10-16T17:10:51;20.90;;;8.38;;
69878;SDS011;57161;43.136;24.706;2022-10-16T17:13:20;10.77;;;8.20;;
69878;SDS011;57161;43.136;24.706;2022-10-16T17:15:52;18.15;;;9.20;;
69878;SDS011;57161;43.136;24.706;2022-10-16T17:18:19;16.55;;;10.48;;
69878;SDS011;57161;43.136;24.706;2022-10-16T17:20:46;12.23;;;8.80;;
69878;SDS011;57161;43.136;24.706;2022-10-16T17:23:12;15.25;;;9.57;;
69878;SDS011;57161;43.136;24.706;2022-10-16T17:25:39;17.10;;;10.88;;
69878;SDS011;57161;43.136;24.706;2022-10-16T17:28:05;16.75;;;10.30;;
69878;SDS011;57161;43.136;24.706;2022-10-16T17:30:34;19.48;;;12.90;;
69878;SDS011;57161;43.136;24.706;2022-10-16T17:33:04;17.42;;;8.55;;
69878;SDS011;57161;43.136;24.706;2022-10-16T17:35:37;15.50;;;9.25;;
69878;SDS011;57161;43.136;24.706;2022-10-16T17:38:06;15.88;;;9.98;;
69878;SDS011;57161;43.136;24.706;2022-10-16T17:40:32;15.73;;;9.15;;
69878;SDS011;57161;43.136;24.706;2022-10-16T17:42:57;15.43;;;9.32;;
69878;SDS011;57161;43.136;24.706;2022-10-16T17:45:23;12.13;;;7.50;;
69878;SDS011;57161;43.136;24.706;2022-10-16T17:47:48;16.60;;;7.68;;
69878;SDS011;57161;43.136;24.706;2022-10-16T17:50:14;13.68;;;7.38;;
69878;SDS011;57161;43.136;24.706;2022-10-16T17:52:39;22.33;;;13.10;;
69878;SDS011;57161;43.136;24.706;2022-10-16T17:55:05;14.35;;;8.20;;
69878;SDS011;57161;43.136;24.706;2022-10-16T17:57:31;13.65;;;7.75;;
69878;SDS011;57161;43.136;24.706;2022-10-16T17:59:57;18.92;;;8.63;;
69878;SDS011;57161;43.136;24.706;2022-10-16T18:02:23;15.88;;;9.52;;
69878;SDS011;57161;43.136;24.706;2022-10-16T18:04:49;13.50;;;8.38;;
69878;SDS011;57161;43.136;24.706;2022-10-16T18:07:18;11.68;;;7.28;;